This is the latest recevied weather packets stored in our database for station/object GW1601. If no packets are shown the sender has not sent any weather packets the latest 10 day(s).
| Time | Temp. | Humidity | Pressure | Rain* | Wind** | Luminosity | Snow |
|---|---|---|---|---|---|---|---|
| 1777946966 | 14.44° C | 87% | 982.3 hPa | 0 mm | - | - | - |
| 1777946597 | 15° C | 86% | 982.3 hPa | 0 mm | - | - | - |
| 1777945158 | 15.56° C | 83% | 982.3 hPa | 0 mm | - | - | - |
| 1777943736 | 16.67° C | 79% | - | 0 mm | - | - | - |
| 1777943011 | 16.67° C | 77% | - | 0 mm | - | - | - |
| 1777940113 | 19.44° C | 67% | - | 0 mm | - | - | - |
| 1777939035 | 19.44° C | 66% | - | 0 mm | - | - | - |
| 1777937621 | 20.56° C | 61% | 982.3 hPa | 0 mm | - | - | - |
| 1777935107 | 21.67° C | 57% | 982.7 hPa | 0 mm | - | - | - |
| 1777934376 | 22.22° C | 56% | 983 hPa | 0 mm | - | - | - |
| 1777933996 | 22.78° C | 56% | 983 hPa | 0 mm | - | - | - |
| 1777932196 | 22.22° C | 58% | 982.7 hPa | 0 mm | - | - | - |
| 1777929328 | 22.78° C | 56% | 983.4 hPa | 0 mm | - | - | - |
| 1777928990 | 22.22° C | 59% | 983.4 hPa | 0 mm | - | - | - |
| 1777927172 | 22.78° C | 56% | 983.4 hPa | 0 mm | - | - | - |
| 1777925741 | 23.89° C | 53% | 983.4 hPa | 0 mm | - | - | - |
| 1777923576 | 24.44° C | 50% | 983.4 hPa | 0 mm | - | - | - |
| 1777922842 | 22.78° C | 51% | 983.4 hPa | 0 mm | - | - | - |
| 1777921789 | 23.33° C | 53% | 983.4 hPa | 0 mm | - | - | - |
| 1777921053 | 23.89° C | 49% | 983.4 hPa | 0 mm | - | - | - |
| 1777920335 | 23.89° C | 51% | 983.4 hPa | 0 mm | - | - | - |
| 1777917800 | 23.89° C | 54% | 983.4 hPa | 0 mm | - | - | - |
| 1777917468 | 23.89° C | 51% | 983.7 hPa | 0 mm | - | - | - |
| 1777915633 | 22.78° C | 51% | 984 hPa | 0 mm | - | - | - |
| 1777913498 | 22.22° C | 57% | 984.4 hPa | 0 mm | - | - | - |
* Rain since midnight (hover to see other rain measurements)
** Current wind speed in m/s (hover to see current wind gust speed)